Time;durP1;ratioP1;P1;durP2;ratioP2;P2;SDS_P1;SDS_P2;PMS_P1;PMS_P2;Temp;Humidity;BMP_temperature;BMP_pressure;BME280_temperature;BME280_humidity;BME280_pressure;Samples;Min_cycle;Max_cycle;Signal;HPM_P1;HPM_P2
2021/08/16 00:01:29;;;;;;;1.30;0.70;;;17.40;75.60;;;;;;5032874;28;20034;-79
2021/08/16 00:03:54;;;;;;;1.45;0.73;;;17.40;75.60;;;;;;5015138;28;20049;-80
2021/08/16 00:06:20;;;;;;;1.70;0.70;;;17.50;75.60;;;;;;5016019;28;20026;-79
2021/08/16 00:08:46;;;;;;;2.17;0.73;;;17.40;75.60;;;;;;5000162;28;20033;-80
2021/08/16 00:11:12;;;;;;;2.38;0.70;;;17.40;75.60;;;;;;5033244;28;20040;-79
2021/08/16 00:13:38;;;;;;;1.60;0.77;;;17.40;75.60;;;;;;5001559;28;20065;-79
2021/08/16 00:16:06;;;;;;;1.77;0.85;;;17.40;75.70;;;;;;4998635;28;20030;-79
2021/08/16 00:18:33;;;;;;;2.72;0.88;;;17.40;75.70;;;;;;4996570;28;20042;-81
2021/08/16 00:21:00;;;;;;;1.63;0.90;;;17.30;75.70;;;;;;5001385;28;20378;-80
2021/08/16 00:23:26;;;;;;;1.13;0.70;;;17.30;75.70;;;;;;5034109;28;20029;-79
2021/08/16 00:25:51;;;;;;;2.25;0.95;;;17.30;75.80;;;;;;5017605;28;20033;-79
2021/08/16 00:28:17;;;;;;;1.02;0.60;;;17.30;75.80;;;;;;5016929;28;20037;-79
2021/08/16 00:30:43;;;;;;;1.33;0.77;;;17.30;75.80;;;;;;5016768;28;20033;-80
2021/08/16 00:33:09;;;;;;;1.15;0.60;;;17.30;75.80;;;;;;4965501;28;20474;-80
2021/08/16 00:35:35;;;;;;;2.03;1.02;;;17.30;76.40;;;;;;4996146;28;20398;-80
2021/08/16 00:38:01;;;;;;;1.17;0.75;;;17.30;75.80;;;;;;4980051;28;20038;-80
2021/08/16 00:40:27;;;;;;;2.42;0.80;;;17.30;75.80;;;;;;5014024;28;20439;-80
2021/08/16 00:42:53;;;;;;;2.88;0.90;;;17.30;75.90;;;;;;5012224;28;20121;-80
2021/08/16 00:45:19;;;;;;;3.05;1.20;;;17.30;76.00;;;;;;5013617;28;20104;-80
2021/08/16 00:47:44;;;;;;;1.20;0.70;;;17.30;76.00;;;;;;4997412;28;20030;-80
2021/08/16 00:50:12;;;;;;;1.90;0.90;;;17.30;76.00;;;;;;4995688;28;20029;-80
2021/08/16 00:52:41;;;;;;;2.28;0.70;;;17.30;76.10;;;;;;5000641;28;20130;-80
2021/08/16 00:55:09;;;;;;;2.20;0.95;;;17.30;76.20;;;;;;5021364;28;20117;-80
2021/08/16 00:57:36;;;;;;;3.10;1.00;;;17.30;76.20;;;;;;5031836;28;20040;-81
2021/08/16 01:00:04;;;;;;;3.50;1.05;;;17.20;76.20;;;;;;5040369;28;20033;-80
2021/08/16 01:02:32;;;;;;;2.13;0.90;;;17.20;76.30;;;;;;4997434;28;20037;-80
2021/08/16 01:05:00;;;;;;;1.52;0.80;;;17.20;76.40;;;;;;5014961;28;20054;-80
2021/08/16 01:07:25;;;;;;;3.78;1.00;;;17.20;76.40;;;;;;4984008;28;20502;-79
2021/08/16 01:09:52;;;;;;;2.17;0.95;;;17.20;76.40;;;;;;4980797;28;20026;-82
2021/08/16 01:12:18;;;;;;;4.97;1.15;;;17.20;76.40;;;;;;5014177;28;20030;-80
2021/08/16 01:14:44;;;;;;;2.30;0.88;;;17.20;76.40;;;;;;4997012;28;20046;-80
2021/08/16 01:17:11;;;;;;;3.38;1.10;;;17.20;76.50;;;;;;5014655;28;20069;-80
2021/08/16 01:19:36;;;;;;;1.25;0.85;;;17.20;76.50;;;;;;5012990;28;20041;-80
2021/08/16 01:22:02;;;;;;;1.90;0.70;;;17.20;76.50;;;;;;4995617;28;20037;-80
2021/08/16 01:24:28;;;;;;;1.65;0.82;;;17.20;76.50;;;;;;5033959;28;20045;-80
2021/08/16 01:26:54;;;;;;;0.93;0.70;;;17.30;76.70;;;;;;5015859;28;20029;-80
2021/08/16 01:29:21;;;;;;;2.53;0.80;;;17.20;76.60;;;;;;5031833;28;20428;-80
2021/08/16 01:31:47;;;;;;;2.88;0.90;;;17.30;76.70;;;;;;5032823;28;20037;-80
2021/08/16 01:34:13;;;;;;;2.10;0.70;;;17.30;76.70;;;;;;5035995;28;20037;-80
2021/08/16 01:36:41;;;;;;;2.55;0.90;;;17.30;76.70;;;;;;5017127;28;20041;-80
2021/08/16 01:39:08;;;;;;;3.00;0.80;;;17.30;76.80;;;;;;4992702;28;20049;-80
2021/08/16 01:41:34;;;;;;;1.85;0.80;;;17.30;76.80;;;;;;5002660;28;20048;-80
2021/08/16 01:44:00;;;;;;;2.35;0.90;;;17.20;76.80;;;;;;5019754;28;20425;-80
2021/08/16 01:46:26;;;;;;;1.83;0.90;;;17.20;76.90;;;;;;4985547;28;20026;-80
2021/08/16 01:48:52;;;;;;;2.88;0.80;;;17.20;76.90;;;;;;5035224;28;20017;-81
2021/08/16 01:51:18;;;;;;;0.82;0.47;;;17.20;77.00;;;;;;5015169;28;20033;-81
2021/08/16 01:53:44;;;;;;;2.65;1.00;;;17.10;77.00;;;;;;5020647;28;20124;-80
2021/08/16 01:56:09;;;;;;;1.58;0.75;;;17.10;77.10;;;;;;5004404;28;20033;-80
2021/08/16 01:58:35;;;;;;;1.60;0.73;;;17.20;77.20;;;;;;4996111;28;20042;-79
2021/08/16 02:01:01;;;;;;;1.23;0.63;;;17.10;77.20;;;;;;4995453;28;20038;-80
2021/08/16 02:03:27;;;;;;;2.13;0.70;;;17.10;77.30;;;;;;5001285;28;20049;-80
2021/08/16 02:05:52;;;;;;;1.65;0.90;;;17.10;77.30;;;;;;4998339;28;20038;-80
2021/08/16 02:08:18;;;;;;;1.85;1.08;;;17.10;77.40;;;;;;4999460;28;21117;-79
2021/08/16 02:10:44;;;;;;;1.80;0.50;;;17.10;77.40;;;;;;5001370;28;20057;-80
2021/08/16 02:13:11;;;;;;;2.95;1.05;;;17.10;77.50;;;;;;5003671;28;20037;-80
2021/08/16 02:15:38;;;;;;;1.42;0.70;;;17.10;77.50;;;;;;5001379;28;20034;-80
2021/08/16 02:18:05;;;;;;;1.73;0.57;;;17.10;77.60;;;;;;4986242;28;20393;-80
2021/08/16 02:20:31;;;;;;;1.58;0.68;;;17.10;77.60;;;;;;5019339;28;20061;-80
2021/08/16 02:22:57;;;;;;;1.40;0.80;;;17.10;77.60;;;;;;4998372;28;20034;-81
2021/08/16 02:25:23;;;;;;;2.00;0.70;;;17.10;77.70;;;;;;4998828;28;20044;-79
2021/08/16 02:27:50;;;;;;;1.23;0.57;;;17.10;77.70;;;;;;4998813;28;20065;-79
2021/08/16 02:30:18;;;;;;;1.67;0.70;;;17.10;77.70;;;;;;4999211;28;20057;-79
2021/08/16 02:32:44;;;;;;;1.98;0.88;;;17.10;77.80;;;;;;5018379;28;20045;-80
2021/08/16 02:35:11;;;;;;;2.88;0.85;;;17.10;77.80;;;;;;4997644;28;20045;-78
2021/08/16 02:37:37;;;;;;;1.50;0.75;;;17.10;77.90;;;;;;4982258;28;20049;-80
2021/08/16 02:40:04;;;;;;;2.50;0.75;;;17.00;78.00;;;;;;5000988;28;20041;-78
2021/08/16 02:42:30;;;;;;;1.10;0.60;;;17.00;78.00;;;;;;5017984;28;20481;-79
2021/08/16 02:44:56;;;;;;;1.70;0.75;;;17.00;78.10;;;;;;5038193;28;20045;-79
2021/08/16 02:47:22;;;;;;;3.30;0.93;;;17.00;78.10;;;;;;5001419;28;20101;-79
2021/08/16 02:49:49;;;;;;;2.15;0.80;;;17.00;78.20;;;;;;5015383;28;20057;-79
2021/08/16 02:52:16;;;;;;;1.92;0.82;;;17.00;78.30;;;;;;5017232;28;20034;-80
2021/08/16 02:54:43;;;;;;;1.98;0.77;;;17.00;78.30;;;;;;5019826;28;20057;-80
2021/08/16 02:57:10;;;;;;;2.70;0.80;;;17.00;78.40;;;;;;5017958;28;20038;-79
2021/08/16 02:59:35;;;;;;;1.17;0.70;;;17.00;78.50;;;;;;4997800;28;20128;-79
2021/08/16 03:02:01;;;;;;;1.27;0.75;;;17.00;78.40;;;;;;4998552;28;20498;-80
2021/08/16 03:04:26;;;;;;;1.60;0.73;;;16.90;78.50;;;;;;5015173;28;20042;-80
2021/08/16 03:06:52;;;;;;;1.23;0.73;;;17.00;78.50;;;;;;5014830;28;20096;-81
2021/08/16 03:09:18;;;;;;;2.97;0.82;;;17.00;78.50;;;;;;4982695;28;20030;-80
2021/08/16 03:11:44;;;;;;;1.10;0.60;;;17.00;78.60;;;;;;4999956;28;20488;-80
2021/08/16 03:14:10;;;;;;;2.85;0.77;;;17.00;78.60;;;;;;4982214;28;20034;-81
2021/08/16 03:16:35;;;;;;;1.85;0.70;;;17.00;78.60;;;;;;5015110;28;20064;-80
2021/08/16 03:19:01;;;;;;;1.48;0.60;;;17.00;78.60;;;;;;5040485;28;20037;-80
2021/08/16 03:21:26;;;;;;;2.40;0.70;;;17.00;78.60;;;;;;5003021;28;20049;-80
2021/08/16 03:23:52;;;;;;;1.88;0.63;;;17.00;78.70;;;;;;5000019;28;20437;-82
2021/08/16 03:26:18;;;;;;;1.08;0.50;;;17.00;78.70;;;;;;5014708;28;20042;-79
2021/08/16 03:28:44;;;;;;;2.35;1.00;;;17.00;78.70;;;;;;4982715;28;20030;-81
2021/08/16 03:31:10;;;;;;;1.40;0.70;;;17.00;78.80;;;;;;4985188;28;20038;-81
2021/08/16 03:33:36;;;;;;;2.90;0.70;;;17.00;78.80;;;;;;5019396;28;20034;-81
2021/08/16 03:36:02;;;;;;;1.83;0.70;;;17.10;78.90;;;;;;5014798;28;20022;-81
2021/08/16 03:38:28;;;;;;;2.35;0.60;;;17.10;78.90;;;;;;5031137;28;20053;-80
2021/08/16 03:40:54;;;;;;;1.63;0.60;;;17.10;78.90;;;;;;5028665;28;20060;-80
2021/08/16 03:43:19;;;;;;;2.05;0.75;;;17.10;78.90;;;;;;5033106;28;20440;-81
2021/08/16 03:45:46;;;;;;;2.97;0.80;;;17.10;78.90;;;;;;5014887;28;20443;-81
2021/08/16 03:48:11;;;;;;;2.10;0.70;;;17.10;79.00;;;;;;4993999;28;20029;-81
2021/08/16 03:50:37;;;;;;;1.20;0.68;;;17.00;78.90;;;;;;5022944;28;20046;-80
2021/08/16 03:53:05;;;;;;;2.53;0.70;;;17.10;79.10;;;;;;4997481;28;20044;-80
2021/08/16 03:55:31;;;;;;;2.85;0.93;;;17.10;79.10;;;;;;5008270;28;20038;-81
2021/08/16 03:57:57;;;;;;;1.05;0.73;;;17.10;79.20;;;;;;4992013;28;20073;-80
2021/08/16 04:00:23;;;;;;;1.65;0.75;;;17.10;79.20;;;;;;4989507;28;20044;-80
2021/08/16 04:02:48;;;;;;;2.05;0.73;;;17.10;79.20;;;;;;5002790;28;20038;-80
2021/08/16 04:05:14;;;;;;;1.98;0.90;;;17.10;79.20;;;;;;5024595;28;20481;-80
2021/08/16 04:07:43;;;;;;;0.73;0.60;;;17.10;79.20;;;;;;4974266;28;20077;-80
2021/08/16 04:10:11;;;;;;;0.70;0.70;;;17.10;79.20;;;;;;4968151;28;20037;-81
2021/08/16 04:12:37;;;;;;;1.55;0.90;;;17.10;79.30;;;;;;5039387;28;20042;-81
2021/08/16 04:15:06;;;;;;;2.88;1.05;;;17.10;79.30;;;;;;5003380;28;20065;-81
2021/08/16 04:17:32;;;;;;;1.60;0.85;;;17.10;79.40;;;;;;5004936;28;20050;-80
2021/08/16 04:19:57;;;;;;;1.42;0.80;;;17.10;79.40;;;;;;5003530;28;20397;-80
2021/08/16 04:22:23;;;;;;;1.60;0.70;;;17.20;79.50;;;;;;5002547;28;20050;-79
2021/08/16 04:24:49;;;;;;;2.00;1.10;;;17.10;79.40;;;;;;5001661;28;20046;-79
2021/08/16 04:27:17;;;;;;;1.13;0.65;;;17.10;79.50;;;;;;5001987;28;20048;-80
2021/08/16 04:29:43;;;;;;;1.90;0.80;;;17.20;79.60;;;;;;5000509;28;20426;-80
2021/08/16 04:32:09;;;;;;;1.42;0.73;;;17.10;79.60;;;;;;5016215;28;20038;-80
2021/08/16 04:34:35;;;;;;;1.30;0.80;;;17.10;79.70;;;;;;5000092;28;20038;-80
2021/08/16 04:37:00;;;;;;;2.17;0.70;;;17.10;79.70;;;;;;4984584;28;20046;-80
2021/08/16 04:39:26;;;;;;;3.05;1.10;;;17.00;79.80;;;;;;5019717;28;20038;-80
2021/08/16 04:41:52;;;;;;;1.85;0.85;;;17.20;79.90;;;;;;5021769;28;20470;-80
2021/08/16 04:44:17;;;;;;;3.35;0.90;;;17.00;79.80;;;;;;5020127;28;20469;-81
2021/08/16 04:46:43;;;;;;;2.72;1.00;;;17.00;79.90;;;;;;5020257;28;20422;-81
2021/08/16 04:49:09;;;;;;;1.23;0.85;;;17.00;79.90;;;;;;5036465;28;20491;-80
2021/08/16 04:51:35;;;;;;;1.58;0.80;;;17.00;79.90;;;;;;5038199;28;20124;-81
2021/08/16 04:54:01;;;;;;;1.40;0.70;;;17.10;80.00;;;;;;5020386;28;20472;-81
2021/08/16 04:56:27;;;;;;;2.25;0.80;;;17.10;80.00;;;;;;5019876;28;20132;-82
2021/08/16 04:58:53;;;;;;;1.88;0.90;;;17.10;80.00;;;;;;5027982;28;20578;-81
2021/08/16 05:01:18;;;;;;;3.53;1.20;;;17.00;80.00;;;;;;5051637;28;20071;-80
2021/08/16 05:03:44;;;;;;;1.60;0.90;;;17.10;80.10;;;;;;5029012;28;20033;-80
2021/08/16 05:06:10;;;;;;;1.23;0.90;;;17.10;80.20;;;;;;5041360;28;20040;-82
2021/08/16 05:08:36;;;;;;;2.33;1.00;;;17.10;80.10;;;;;;5045543;28;20048;-80
2021/08/16 05:11:04;;;;;;;1.83;0.85;;;17.10;80.10;;;;;;5044860;28;20030;-79
2021/08/16 05:13:30;;;;;;;1.45;0.90;;;17.10;80.10;;;;;;5006870;28;20034;-80
2021/08/16 05:15:55;;;;;;;3.55;1.30;;;17.10;80.10;;;;;;5020419;28;20482;-80
2021/08/16 05:18:22;;;;;;;2.00;1.10;;;17.10;80.00;;;;;;5001463;28;20053;-81
2021/08/16 05:20:49;;;;;;;2.63;1.10;;;17.20;80.20;;;;;;5023729;28;20034;-80
2021/08/16 05:23:18;;;;;;;2.45;1.05;;;17.10;80.10;;;;;;4998389;28;20092;-82
2021/08/16 05:25:44;;;;;;;3.33;1.10;;;17.20;80.20;;;;;;4969670;28;20453;-81
2021/08/16 05:28:10;;;;;;;2.75;1.40;;;17.20;80.20;;;;;;5001938;28;20050;-81
2021/08/16 05:30:36;;;;;;;3.05;1.60;;;17.20;80.20;;;;;;5019162;28;20026;-81
2021/08/16 05:33:02;;;;;;;3.45;1.35;;;17.20;80.20;;;;;;5009718;28;20062;-81
2021/08/16 05:35:28;;;;;;;2.45;1.27;;;17.20;80.20;;;;;;5033095;28;20061;-81
2021/08/16 05:37:55;;;;;;;2.22;1.20;;;17.20;80.20;;;;;;5024829;28;20516;-80
2021/08/16 05:40:21;;;;;;;5.07;1.58;;;17.20;80.30;;;;;;5024105;28;20457;-81
2021/08/16 05:42:47;;;;;;;3.22;1.67;;;17.20;80.20;;;;;;5013542;28;20026;-81
2021/08/16 05:45:13;;;;;;;2.78;1.63;;;17.20;80.40;;;;;;5010392;28;20053;-81
2021/08/16 05:47:39;;;;;;;2.05;1.30;;;17.20;80.30;;;;;;5011363;28;20073;-81
2021/08/16 05:50:05;;;;;;;3.53;1.80;;;17.20;80.40;;;;;;5012852;28;20030;-82
2021/08/16 05:52:32;;;;;;;3.63;1.55;;;17.30;80.90;;;;;;5038501;28;20076;-80
2021/08/16 05:54:58;;;;;;;3.90;1.60;;;17.30;80.50;;;;;;5008543;28;20038;-81
2021/08/16 05:57:24;;;;;;;3.75;1.90;;;17.30;80.40;;;;;;5007247;28;20393;-82
2021/08/16 05:59:49;;;;;;;3.22;1.85;;;17.30;80.30;;;;;;4989263;28;20038;-81
2021/08/16 06:02:15;;;;;;;3.08;1.80;;;17.30;80.30;;;;;;5002140;28;20117;-80
2021/08/16 06:04:41;;;;;;;1.98;1.60;;;17.30;80.40;;;;;;5016718;28;20036;-80
2021/08/16 06:07:06;;;;;;;4.10;1.90;;;17.30;80.40;;;;;;5038452;28;20037;-80
2021/08/16 06:09:32;;;;;;;3.72;1.90;;;17.40;80.50;;;;;;5044218;28;20093;-81
2021/08/16 06:11:58;;;;;;;4.32;2.53;;;17.40;80.50;;;;;;5026366;28;20064;-83
2021/08/16 06:14:23;;;;;;;3.45;2.05;;;17.40;80.60;;;;;;5010326;28;20041;-80
2021/08/16 06:16:49;;;;;;;3.75;2.00;;;17.30;80.60;;;;;;5042074;28;20512;-81
2021/08/16 06:19:15;;;;;;;3.15;2.10;;;17.30;80.60;;;;;;5025561;28;20052;-80
2021/08/16 06:21:43;;;;;;;5.35;2.20;;;17.40;80.60;;;;;;5004183;28;20041;-82
2021/08/16 06:24:10;;;;;;;2.95;2.05;;;17.40;80.60;;;;;;5020650;28;20069;-80
2021/08/16 06:26:37;;;;;;;3.22;1.80;;;17.40;80.60;;;;;;5002398;28;20030;-80
2021/08/16 06:29:03;;;;;;;4.13;2.22;;;17.40;80.60;;;;;;5034130;28;20032;-80
2021/08/16 06:31:29;;;;;;;3.38;2.00;;;17.40;80.50;;;;;;5000697;28;20133;-80
2021/08/16 06:33:55;;;;;;;3.63;1.92;;;17.50;80.50;;;;;;4980632;28;20048;-80
2021/08/16 06:36:21;;;;;;;3.65;2.30;;;17.50;80.60;;;;;;5013462;28;20375;-80
2021/08/16 06:38:48;;;;;;;5.00;2.60;;;17.50;80.70;;;;;;4964771;28;20046;-81
2021/08/16 06:41:15;;;;;;;4.35;2.42;;;17.40;80.80;;;;;;4980934;28;20614;-81
2021/08/16 06:43:42;;;;;;;3.25;2.22;;;17.40;81.00;;;;;;4997822;28;20545;-83
2021/08/16 06:46:08;;;;;;;3.78;2.05;;;17.30;81.20;;;;;;4982655;28;20133;-84
2021/08/16 06:48:34;;;;;;;3.25;2.15;;;17.30;81.60;;;;;;4980450;28;20026;-84
2021/08/16 06:51:00;;;;;;;3.95;2.33;;;17.20;81.80;;;;;;5006975;28;20041;-84
2021/08/16 06:53:36;;;;;;;3.65;2.10;;;17.20;81.90;;;;;;5009404;28;20038;-87
2021/08/16 06:56:01;;;;;;;2.88;1.88;;;17.20;82.10;;;;;;4965080;28;20101;-84
2021/08/16 06:59:00;;;;;;;3.28;2.10;;;17.00;82.20;;;;;;4968301;28;20051;-89
2021/08/16 07:05:27;;;;;;;2.83;2.13;;;17.00;82.60;;;;;;5605366;23;20106;-86
2021/08/16 07:08:02;;;;;;;4.20;2.10;;;17.00;82.70;;;;;;4982870;28;20077;-86
2021/08/16 07:10:31;;;;;;;5.47;2.75;;;16.90;82.80;;;;;;4957318;29;20138;-86
2021/08/16 07:12:57;;;;;;;4.88;2.50;;;16.80;83.00;;;;;;4920655;29;20055;-86
2021/08/16 07:15:23;;;;;;;3.00;2.25;;;16.80;83.30;;;;;;4920292;29;20035;-86
2021/08/16 07:17:48;;;;;;;2.35;1.90;;;16.80;83.40;;;;;;4920268;29;20046;-87
2021/08/16 07:20:14;;;;;;;2.83;2.00;;;16.80;83.50;;;;;;4936574;29;20447;-87
2021/08/16 07:22:40;;;;;;;1.95;1.50;;;16.80;83.50;;;;;;4919929;29;20043;-87
2021/08/16 07:36:21;;;;;;;1.80;1.38;;;16.90;83.50;;;;;;4814598;29;20038;-87
2021/08/16 07:38:49;;;;;;;1.42;1.30;;;16.90;83.60;;;;;;4836484;29;20057;-86
2021/08/16 07:41:15;;;;;;;1.85;1.40;;;16.90;83.60;;;;;;4844996;29;20080;-83
2021/08/16 07:43:40;;;;;;;1.95;1.50;;;17.00;83.70;;;;;;4843599;29;20116;-86
2021/08/16 07:46:06;;;;;;;2.08;1.20;;;16.90;83.80;;;;;;4844981;29;20057;-86
2021/08/16 07:48:37;;;;;;;1.73;1.27;;;16.80;83.90;;;;;;4841921;29;20054;-87
2021/08/16 07:51:03;;;;;;;1.27;0.90;;;16.80;84.00;;;;;;4834060;29;20037;-86
2021/08/16 07:53:29;;;;;;;0.77;0.70;;;16.90;84.10;;;;;;4844370;29;20045;-85
2021/08/16 07:55:55;;;;;;;1.08;0.60;;;16.90;84.10;;;;;;4859789;29;20049;-85
2021/08/16 07:58:20;;;;;;;0.50;0.50;;;16.90;84.10;;;;;;4859237;29;20053;-86
2021/08/16 08:00:51;;;;;;;0.55;0.55;;;17.00;84.10;;;;;;4842845;29;20037;-86
2021/08/16 08:03:17;;;;;;;0.68;0.60;;;17.00;84.10;;;;;;4824181;29;20045;-84
2021/08/16 08:05:43;;;;;;;1.08;0.80;;;17.00;84.10;;;;;;4825515;29;20043;-87
2021/08/16 08:08:09;;;;;;;1.25;0.60;;;17.00;84.10;;;;;;4862892;29;20547;-86
2021/08/16 08:10:35;;;;;;;0.70;0.60;;;17.00;84.20;;;;;;4862396;29;20581;-86
2021/08/16 08:13:01;;;;;;;2.13;0.75;;;17.00;84.10;;;;;;4916328;29;20036;-85
2021/08/16 08:15:26;;;;;;;0.65;0.52;;;17.10;84.10;;;;;;4911138;29;20038;-84
2021/08/16 08:17:52;;;;;;;0.68;0.68;;;17.20;84.00;;;;;;4921660;29;20075;-83
2021/08/16 08:20:18;;;;;;;0.50;0.50;;;17.10;83.90;;;;;;4921650;29;20047;-86
2021/08/16 08:22:47;;;;;;;1.02;0.70;;;17.10;83.90;;;;;;4980675;28;20077;-86
2021/08/16 08:25:13;;;;;;;0.60;0.50;;;17.10;84.00;;;;;;4956945;28;20115;-85
2021/08/16 08:27:38;;;;;;;0.40;0.40;;;17.00;84.10;;;;;;4940466;28;20125;-83
2021/08/16 08:30:07;;;;;;;1.05;0.45;;;16.90;84.60;;;;;;4973242;28;20648;-86
2021/08/16 08:33:04;;;;;;;1.40;0.60;;;16.80;84.70;;;;;;4956452;28;20057;-87
2021/08/16 08:35:36;;;;;;;0.80;0.73;;;16.70;84.90;;;;;;4903794;29;20103;-85
2021/08/16 08:41:39;;;;;;;1.98;0.65;;;16.50;85.20;;;;;;4870719;29;20493;-88
2021/08/16 08:44:27;;;;;;;0.70;0.60;;;16.40;85.40;;;;;;4876071;29;20053;-87
2021/08/16 08:47:11;;;;;;;0.82;0.60;;;16.30;85.50;;;;;;4855907;29;20057;-86
2021/08/16 08:49:38;;;;;;;0.63;0.55;;;16.30;85.50;;;;;;4893383;29;20045;-87
2021/08/16 08:52:06;;;;;;;0.40;0.40;;;16.20;85.40;;;;;;4877382;29;20067;-88
2021/08/16 08:54:38;;;;;;;0.43;0.40;;;16.30;85.40;;;;;;4861782;29;20517;-86
2021/08/16 08:57:09;;;;;;;0.73;0.55;;;16.40;85.40;;;;;;4880728;29;20112;-86
2021/08/16 08:59:35;;;;;;;0.52;0.50;;;16.50;85.10;;;;;;4839554;29;20050;-86
2021/08/16 09:02:02;;;;;;;0.40;0.40;;;16.60;85.00;;;;;;4825253;29;20535;-86
2021/08/16 09:04:28;;;;;;;0.73;0.57;;;16.80;84.60;;;;;;4829306;29;20154;-85
2021/08/16 09:06:54;;;;;;;1.80;0.70;;;16.80;84.40;;;;;;4861216;29;20074;-85
2021/08/16 09:09:20;;;;;;;0.90;0.55;;;16.80;84.30;;;;;;4845940;29;20041;-85
2021/08/16 09:11:51;;;;;;;1.15;0.60;;;16.90;84.30;;;;;;4883058;29;20032;-85
2021/08/16 09:14:17;;;;;;;2.63;0.80;;;17.10;84.30;;;;;;4898714;29;20527;-85
2021/08/16 09:16:46;;;;;;;1.25;0.60;;;17.10;84.10;;;;;;4883053;29;20040;-85
2021/08/16 09:19:13;;;;;;;1.50;0.75;;;17.10;84.00;;;;;;4883122;29;20055;-85
2021/08/16 09:21:42;;;;;;;0.70;0.60;;;17.20;84.00;;;;;;4882977;29;20047;-86
2021/08/16 09:24:08;;;;;;;1.00;0.70;;;17.30;83.80;;;;;;4917619;29;20081;-84
2021/08/16 09:26:38;;;;;;;1.83;1.13;;;17.40;83.70;;;;;;4952676;29;20043;-86
2021/08/16 09:29:15;;;;;;;1.52;0.70;;;17.40;83.40;;;;;;4936899;29;20039;-83
2021/08/16 09:31:56;;;;;;;1.00;0.75;;;17.40;83.40;;;;;;4936748;29;20059;-85
2021/08/16 09:34:36;;;;;;;0.80;0.60;;;17.50;83.40;;;;;;4936740;29;20054;-84
2021/08/16 09:37:15;;;;;;;1.50;0.80;;;17.40;83.30;;;;;;4965352;28;20085;-85
2021/08/16 09:39:43;;;;;;;1.25;0.60;;;17.30;83.50;;;;;;5007998;28;20514;-85
2021/08/16 09:42:08;;;;;;;1.05;0.70;;;17.30;83.70;;;;;;4991573;28;20042;-85
2021/08/16 09:44:44;;;;;;;1.23;0.95;;;17.30;83.70;;;;;;4991796;28;20070;-83
2021/08/16 09:47:10;;;;;;;0.95;0.60;;;17.20;83.60;;;;;;4992208;28;20050;-83
2021/08/16 09:49:36;;;;;;;1.90;1.08;;;17.20;83.70;;;;;;4991460;28;20044;-83
2021/08/16 09:52:04;;;;;;;1.45;0.80;;;17.10;83.70;;;;;;4991711;28;20046;-83
2021/08/16 09:54:32;;;;;;;2.50;0.93;;;17.10;83.90;;;;;;4991110;28;20490;-82
2021/08/16 09:57:00;;;;;;;1.27;1.00;;;17.00;84.00;;;;;;4991335;28;20042;-84
2021/08/16 09:59:27;;;;;;;2.97;1.10;;;17.00;84.10;;;;;;4991276;28;20047;-83
2021/08/16 10:01:53;;;;;;;2.35;1.10;;;17.00;84.00;;;;;;4992678;28;20526;-84
2021/08/16 10:04:18;;;;;;;2.22;1.10;;;17.10;83.80;;;;;;4992913;28;20141;-84
2021/08/16 10:06:45;;;;;;;2.55;1.20;;;17.20;83.40;;;;;;4990589;28;20840;-84
2021/08/16 10:09:12;;;;;;;2.05;1.10;;;17.30;83.20;;;;;;4992465;28;20046;-84
2021/08/16 10:11:39;;;;;;;1.25;0.90;;;17.40;83.00;;;;;;4989345;28;20046;-83
2021/08/16 10:14:05;;;;;;;0.93;0.70;;;17.50;82.90;;;;;;4991466;28;20137;-83
2021/08/16 10:16:42;;;;;;;2.45;0.75;;;17.50;82.70;;;;;;4990021;28;20081;-83
2021/08/16 10:19:12;;;;;;;1.92;1.00;;;17.60;82.50;;;;;;4975748;28;20065;-83
2021/08/16 10:21:39;;;;;;;1.67;1.10;;;17.50;82.40;;;;;;4989118;28;20042;-82
2021/08/16 10:24:26;;;;;;;1.98;1.10;;;17.60;82.30;;;;;;4990672;28;20046;-84
2021/08/16 10:27:05;;;;;;;2.17;1.00;;;17.70;82.20;;;;;;4993856;28;20156;-82
2021/08/16 10:29:32;;;;;;;2.58;1.20;;;17.70;82.10;;;;;;4994346;28;20076;-83
2021/08/16 10:32:00;;;;;;;1.85;1.10;;;17.80;81.80;;;;;;5009396;28;20449;-82
2021/08/16 10:34:31;;;;;;;2.58;1.25;;;18.00;81.50;;;;;;4992601;28;20088;-83
2021/08/16 10:36:58;;;;;;;;;;;18.30;81.00;;;;;;4995824;28;20054;-81
2021/08/16 10:39:39;;;;;;;2.17;1.25;;;18.40;80.40;;;;;;4992221;28;19921;-80
2021/08/16 10:42:10;;;;;;;2.55;1.45;;;18.60;80.00;;;;;;4995214;28;20054;-82
2021/08/16 10:44:42;;;;;;;3.67;1.60;;;18.60;79.70;;;;;;5010054;28;20445;-81
2021/08/16 10:47:10;;;;;;;3.03;1.77;;;18.50;79.50;;;;;;4993966;28;20045;-83
2021/08/16 10:49:39;;;;;;;3.58;1.70;;;18.70;79.30;;;;;;4993835;28;20049;-81
2021/08/16 10:52:06;;;;;;;3.13;1.45;;;18.80;79.10;;;;;;4993320;28;20849;-82
2021/08/16 10:54:34;;;;;;;2.17;1.50;;;18.80;79.00;;;;;;4990853;28;20128;-82
2021/08/16 10:57:00;;;;;;;2.55;1.60;;;18.80;78.70;;;;;;4992885;28;20101;-81
2021/08/16 10:59:28;;;;;;;4.35;2.00;;;18.70;78.60;;;;;;4992607;28;20097;-80
2021/08/16 11:01:55;;;;;;;2.85;1.75;;;18.60;78.70;;;;;;5009801;28;20046;-81
2021/08/16 11:04:33;;;;;;;2.90;1.48;;;18.60;79.00;;;;;;4992917;28;20096;-81
2021/08/16 11:07:02;;;;;;;2.50;1.67;;;18.50;79.20;;;;;;4977581;28;20038;-81
2021/08/16 11:09:30;;;;;;;3.05;1.20;;;18.70;79.10;;;;;;5008113;28;20493;-81
2021/08/16 11:12:03;;;;;;;4.22;1.95;;;18.80;78.90;;;;;;4991417;28;20050;-81
2021/08/16 11:14:30;;;;;;;2.63;1.50;;;18.80;78.50;;;;;;4992684;28;20046;-80
2021/08/16 11:16:57;;;;;;;2.15;1.38;;;18.90;78.20;;;;;;4993300;28;20039;-81
2021/08/16 11:19:24;;;;;;;3.25;1.50;;;19.00;78.10;;;;;;5009793;28;20089;-81
2021/08/16 11:21:58;;;;;;;2.85;1.63;;;18.90;77.70;;;;;;4992833;28;20112;-82
2021/08/16 11:24:27;;;;;;;1.98;1.30;;;18.90;78.40;;;;;;4994501;28;20082;-80
2021/08/16 11:26:53;;;;;;;2.47;1.30;;;18.70;77.70;;;;;;4992884;28;20522;-81
2021/08/16 11:29:24;;;;;;;2.22;1.15;;;18.60;78.10;;;;;;4992169;28;20034;-81
2021/08/16 11:31:51;;;;;;;;;;;18.50;78.40;;;;;;5008946;28;20034;-82
2021/08/16 11:34:17;;;;;;;2.45;1.35;;;18.40;78.50;;;;;;4992176;28;19906;-81
2021/08/16 11:36:42;;;;;;;2.55;1.40;;;18.40;78.80;;;;;;5012290;28;20045;-82
2021/08/16 11:39:08;;;;;;;2.03;1.20;;;18.20;78.50;;;;;;5007991;28;20038;-81
2021/08/16 11:41:34;;;;;;;2.22;1.20;;;18.20;78.70;;;;;;5012922;28;20030;-80
2021/08/16 11:44:14;;;;;;;2.15;1.08;;;18.10;78.80;;;;;;5022795;28;20043;-83
2021/08/16 11:46:40;;;;;;;1.45;1.10;;;18.00;78.90;;;;;;4997787;28;20133;-82
2021/08/16 11:49:09;;;;;;;1.25;1.00;;;18.00;79.00;;;;;;4994515;28;20034;-83
2021/08/16 11:51:35;;;;;;;1.23;0.88;;;17.90;79.10;;;;;;4993968;28;20042;-83
2021/08/16 11:54:00;;;;;;;1.67;0.82;;;17.90;79.10;;;;;;4992688;28;20066;-82
2021/08/16 11:56:26;;;;;;;1.38;0.98;;;17.90;78.90;;;;;;4993523;28;20070;-81
2021/08/16 11:58:52;;;;;;;2.55;1.02;;;18.00;78.90;;;;;;5009034;28;20038;-83
2021/08/16 12:01:19;;;;;;;1.67;1.17;;;17.90;78.70;;;;;;4992595;28;20038;-82
2021/08/16 12:03:45;;;;;;;2.53;1.17;;;17.90;78.70;;;;;;4993383;28;20053;-81
2021/08/16 12:06:14;;;;;;;1.40;0.93;;;17.80;78.90;;;;;;5008959;28;20047;-81
2021/08/16 12:08:40;;;;;;;1.00;0.70;;;17.80;78.90;;;;;;4975640;28;20042;-82
2021/08/16 12:11:17;;;;;;;1.08;0.80;;;17.70;79.10;;;;;;4991462;28;20458;-81
2021/08/16 12:13:42;;;;;;;2.45;1.00;;;17.60;79.10;;;;;;5008441;28;21041;-82
2021/08/16 12:16:14;;;;;;;1.38;0.93;;;17.50;79.10;;;;;;4991509;28;20129;-83
2021/08/16 12:18:40;;;;;;;1.13;0.85;;;17.20;79.30;;;;;;4991697;28;20038;-82
2021/08/16 12:21:06;;;;;;;3.90;1.40;;;16.90;80.10;;;;;;4991073;28;20057;-83
2021/08/16 12:23:36;;;;;;;1.50;0.90;;;16.50;80.80;;;;;;4992707;28;20497;-84
2021/08/16 12:26:03;;;;;;;2.45;1.13;;;16.30;81.50;;;;;;5008794;28;20039;-84
2021/08/16 12:28:44;;;;;;;1.80;0.90;;;16.00;82.00;;;;;;5008865;28;20537;-84
2021/08/16 12:31:14;;;;;;;1.80;1.17;;;15.80;83.10;;;;;;4975191;28;20104;-84
2021/08/16 12:33:51;;;;;;;3.17;1.20;;;15.80;82.70;;;;;;4992143;28;20026;-84
2021/08/16 12:36:22;;;;;;;1.48;0.90;;;15.80;82.70;;;;;;4992380;28;20387;-84
2021/08/16 12:38:55;;;;;;;1.33;0.90;;;15.70;82.60;;;;;;4976168;28;20045;-83
2021/08/16 12:41:24;;;;;;;1.00;0.68;;;15.80;82.50;;;;;;4993662;28;20096;-84
2021/08/16 12:43:50;;;;;;;2.10;0.80;;;15.80;82.40;;;;;;4990769;28;20104;-84
2021/08/16 12:46:27;;;;;;;1.40;0.80;;;15.80;82.20;;;;;;4991565;28;20053;-84
2021/08/16 12:48:53;;;;;;;1.10;0.70;;;15.90;82.20;;;;;;4990217;28;20046;-84
2021/08/16 12:51:19;;;;;;;1.75;0.73;;;15.90;82.10;;;;;;4992068;28;20034;-83
2021/08/16 12:53:44;;;;;;;1.00;0.35;;;16.20;82.00;;;;;;4991247;28;20490;-84
2021/08/16 12:56:10;;;;;;;1.05;0.60;;;16.10;81.90;;;;;;4993769;28;20057;-84
2021/08/16 12:58:36;;;;;;;1.00;0.55;;;16.20;81.80;;;;;;4991730;28;20494;-83
2021/08/16 13:01:03;;;;;;;1.60;0.60;;;16.10;81.80;;;;;;4991420;28;20050;-83
2021/08/16 13:03:28;;;;;;;0.88;0.70;;;16.20;81.80;;;;;;4974611;28;20052;-85
2021/08/16 13:05:54;;;;;;;0.85;0.70;;;16.30;81.60;;;;;;4990237;28;20419;-84
2021/08/16 13:08:20;;;;;;;1.35;0.82;;;16.40;81.30;;;;;;4991564;28;20133;-84